Latest Weather Observations for Richmond

IDQ60801

Issued at 8:02 pm EST Friday 27 March 2015 (issued every 30 minutes, with the page automatically refreshed every 10 minutes)

About weather observations | Map of weather stations | Latest weather observations for QLD | Other Formats
Station Details ID: 030161 Name: RICHMOND AIRPORT Lat: -20.70 Lon: 143.12 Height: 206.3 m
Data from the previous 72 hours. | See also: Recent months at Richmond
Date/Time
EST
Temp
°C
App
Temp
°C
Dew
Point
Rel
Hum
%
Delta-T
°C
Wind Press
QNH
hPa
Press
MSL
hPa
Rain
since 9 am
mm
Dir
 
Spd
km/h
Gust
km/h
Spd
kts
Gust
kts
27/08:00pm 32.1 33.9 15.6 37 10.3 CALM 0 0 0 0 1013.4 1012.0 0.0
27/07:30pm 32.6 32.7 15.6 36 10.7 E 9 11 5 6 1013.2 1011.8 0.0
27/07:00pm 32.8 32.1 15.3 34 10.9 ESE 13 19 7 10 1013.1 1011.7 0.0
27/06:30pm 33.2 30.7 15.2 33 11.3 ESE 22 32 12 17 1013.0 1011.6 0.0
27/06:00pm 34.7 34.1 14.6 30 12.5 ESE 11 17 6 9 1012.6 1011.2 0.0
27/05:30pm 34.9 34.7 14.7 29 12.6 ESE 9 15 5 8 1012.3 1010.9 0.0
27/05:00pm 34.9 34.3 14.7 29 12.6 ENE 11 17 6 9 1012.2 1010.8 0.0
27/04:30pm 34.9 34.9 14.2 28 12.8 NE 7 22 4 12 1012.2 1010.8 0.0
27/04:00pm 36.5 35.6 12.7 24 14.5 WNW 9 17 5 9 1012.0 1010.6 0.0
27/03:30pm 37.1 35.4 12.5 23 15.0 WNW 13 20 7 11 1012.1 1010.7 0.0
27/03:00pm 37.0 34.9 12.4 23 15.0 WSW 15 22 8 12 1012.3 1010.9 0.0
27/02:30pm 37.3 37.0 12.7 23 15.1 NNW 6 15 3 8 1012.7 1011.3 0.0
27/02:00pm 35.8 35.3 12.1 24 14.3 NNW 6 11 3 6 1013.1 1011.7 0.0
27/01:30pm 36.3 35.8 11.9 23 14.7 NW 6 17 3 9 1013.5 1012.2 0.0
27/01:00pm 36.1 34.4 12.3 24 14.4 NNW 13 20 7 11 1014.1 1012.8 0.0
27/12:30pm 35.1 33.5 11.5 24 14.1 NW 11 28 6 15 1014.9 1013.5 0.0
27/12:00pm 34.3 33.4 10.8 24 13.8 W 6 13 3 7 1015.4 1014.0 0.0
27/11:30am 33.8 32.5 9.8 23 13.9 N 7 13 4 7 1016.1 1014.7 0.0
27/11:00am 33.2 31.0 9.3 23 13.7 NNE 11 17 6 9 1016.6 1015.2 0.0
27/10:30am 32.3 30.1 9.2 24 13.1 N 11 17 6 9 1017.0 1015.6 0.0
27/10:00am 30.7 28.2 8.4 25 12.4 ENE 11 17 6 9 1017.1 1015.7 0.0
27/09:30am 29.6 26.0 6.9 24 12.3 ESE 15 22 8 12 1017.1 1015.7 0.0
27/09:00am 28.3 23.5 5.8 24 11.8 ESE 20 26 11 14 1017.2 1015.8 0.0
27/08:30am 27.4 22.8 5.6 25 11.4 ESE 19 26 10 14 1016.9 1015.5 0.0
27/08:00am 25.8 22.1 4.3 25 10.9 SE 13 20 7 11 1016.7 1015.3 0.0
27/07:30am 22.6 19.7 4.6 31 8.9 SSE 9 11 5 6 1016.5 1015.1 0.0
27/07:00am 20.9 17.6 4.5 34 8.0 SSE 11 13 6 7 1016.2 1014.8 0.0
27/06:30am 20.6 16.9 4.2 34 8.0 SSE 13 15 7 8 1016.1 1014.7 0.0
27/06:00am 20.8 17.1 4.4 34 8.0 SSE 13 13 7 7 1016.0 1014.6 0.0
27/05:30am 21.2 17.8 3.9 32 8.4 SSE 11 13 6 7 1015.7 1014.3 0.0
27/05:00am 21.6 18.5 3.8 31 8.7 SSE 9 13 5 7 1015.7 1014.3 0.0
27/04:30am 22.6 19.1 3.7 29 9.3 SSE 11 13 6 7 1015.4 1014.0 0.0
27/04:00am 23.4 18.7 3.4 27 9.8 SSE 17 19 9 10 1015.1 1013.7 0.0
27/03:30am 23.9 18.8 3.2 26 10.1 SSE 19 20 10 11 1015.1 1013.7 0.0
27/03:00am 23.9 19.1 2.7 25 10.3 SSE 17 19 9 10 1015.4 1014.0 0.0
27/02:30am 24.3 19.6 3.0 25 10.4 SSE 17 20 9 11 1015.5 1014.1 0.0
27/02:00am 24.7 19.6 2.8 24 10.7 SSE 19 22 10 12 1015.5 1014.1 0.0
27/01:30am 25.2 20.0 2.6 23 11.0 SSE 19 24 10 13 1015.8 1014.4 0.0
27/01:00am 26.0 20.6 2.7 22 11.4 SSE 20 26 11 14 1015.9 1014.5 0.0
27/12:30am 26.1 20.9 2.7 22 11.5 SSE 19 24 10 13 1016.1 1014.7 0.0
 
Date/Time
EST
Temp
°C
App
Temp
°C
Dew
Point
Rel
Hum
%
Delta-T
°C
Wind Press
QNH
hPa
Press
MSL
hPa
Rain
since 9 am
mm
Dir
 
Spd
km/h
Gust
km/h
Spd
kts
Gust
kts
26/11:30pm 27.0 21.3 2.8 21 12.0 SSE 22 28 12 15 1016.2 1014.8 0.0
26/11:00pm 27.6 22.0 3.3 21 12.2 S 22 30 12 16 1016.1 1014.7 0.0
26/10:30pm 28.5 22.9 3.4 20 12.7 S 22 30 12 16 1016.0 1014.6 0.0
26/10:00pm 29.1 23.1 3.1 19 13.1 S 24 30 13 16 1015.7 1014.3 0.0
26/09:30pm 29.2 23.2 3.2 19 13.2 S 24 30 13 16 1015.3 1013.9 0.0
26/09:00pm 29.4 23.9 4.1 20 13.0 S 22 28 12 15 1015.1 1013.7 0.0
26/08:30pm 29.7 24.9 4.4 20 13.1 S 19 22 10 12 1014.8 1013.4 0.0
26/08:00pm 31.1 25.8 4.8 19 13.8 SSW 22 28 12 15 1014.5 1013.1 0.0
26/07:30pm 29.7 26.3 7.6 25 12.1 S 15 17 8 9 1014.0 1012.7 0.0
26/07:00pm 32.2 28.3 7.1 21 13.8 S 17 19 9 10 1013.6 1012.3 0.0
26/06:30pm 34.4 29.8 5.8 17 15.6 S 19 22 10 12 1013.3 1011.9 0.0
26/06:00pm 36.2 31.0 5.5 15 16.8 S 22 30 12 16 1013.0 1011.6 0.0
26/05:30pm 37.1 31.5 5.2 14 17.5 S 24 30 13 16 1012.8 1011.4 0.0
26/05:00pm 37.9 32.4 5.8 14 17.8 S 24 33 13 18 1012.6 1011.2 0.0
26/04:30pm 37.9 34.1 5.8 14 17.8 SE 15 22 8 12 1012.6 1011.2 0.0
26/04:00pm 38.1 34.0 6.0 14 17.9 SSE 17 32 9 17 1012.7 1011.3 0.0
26/03:30pm 38.3 34.4 7.1 15 17.7 SE 17 28 9 15 1012.8 1011.4 0.0
26/03:00pm 37.5 34.2 6.5 15 17.3 S 13 24 7 13 1013.1 1011.7 0.0
26/02:30pm 37.8 34.2 6.7 15 17.5 SE 15 28 8 15 1013.4 1012.0 0.0
26/02:00pm 36.9 32.4 6.0 15 17.1 SSE 19 35 10 19 1013.9 1012.6 0.0
26/01:30pm 36.9 32.2 6.0 15 17.1 SSE 20 35 11 19 1014.3 1013.0 0.0
26/01:00pm 35.3 30.7 5.7 16 16.2 SSE 19 30 10 16 1015.1 1013.7 0.0
26/12:30pm 34.7 30.0 6.1 17 15.7 SE 20 28 11 15 1015.7 1014.3 0.0
26/12:00pm 33.7 29.5 7.6 20 14.6 SE 19 26 10 14 1016.4 1015.0 0.0
26/11:30am 33.0 28.5 7.1 20 14.3 ESE 20 30 11 16 1016.9 1015.5 0.0
26/11:00am 33.4 28.8 6.6 19 14.7 SE 20 26 11 14 1017.2 1015.8 0.0
26/10:30am 31.7 26.6 6.0 20 13.8 SE 22 32 12 17 1017.3 1015.9 0.0
26/10:00am 31.2 26.2 6.3 21 13.4 SE 22 32 12 17 1017.5 1016.1 0.0
26/09:30am 30.5 25.1 6.4 22 13.0 SE 24 30 13 16 1017.5 1016.1 0.0
26/09:00am 29.3 24.2 6.0 23 12.4 SSE 22 28 12 15 1017.5 1016.1 0.0
26/08:30am 26.9 22.8 6.3 27 10.9 SE 17 24 9 13 1017.4 1016.0 0.0
26/08:00am 24.9 21.8 7.1 32 9.4 S 13 17 7 9 1017.2 1015.8 0.0
26/07:30am 23.2 20.5 8.9 40 7.7 SE 13 15 7 8 1016.9 1015.5 0.0
26/07:00am 20.9 19.2 8.5 45 6.6 SSE 7 9 4 5 1016.6 1015.2 0.0
26/06:30am 22.3 18.4 6.9 37 8.0 SE 17 20 9 11 1016.1 1014.7 0.0
26/06:00am 23.4 18.8 6.7 34 8.7 SE 20 24 11 13 1015.9 1014.5 0.0
26/05:30am 21.8 18.0 7.6 40 7.4 SE 17 17 9 9 1015.9 1014.5 0.0
26/05:00am 21.9 18.0 8.8 43 7.0 SE 19 22 10 12 1015.4 1014.0 0.0
26/04:30am 21.5 18.1 9.1 45 6.7 SSE 17 19 9 10 1015.0 1013.6 0.0
26/04:00am 22.1 18.6 8.6 42 7.2 SSE 17 19 9 10 1014.8 1013.4 0.0
26/03:30am 23.0 19.9 9.0 41 7.6 SSE 15 19 8 10 1014.7 1013.3 0.0
26/03:00am 23.7 20.1 8.5 38 8.2 SSE 17 20 9 11 1014.7 1013.3 0.0
26/02:30am 24.7 20.0 7.8 34 9.0 S 22 28 12 15 1014.7 1013.3 0.0
26/02:00am 24.3 20.4 9.5 39 8.1 S 20 24 11 13 1014.8 1013.4 0.0
26/01:30am 23.9 20.4 10.2 42 7.6 SSW 19 20 10 11 1014.8 1013.4 0.0
26/01:00am 24.3 21.7 10.6 42 7.7 SSW 15 17 8 9 1015.0 1013.6 0.0
26/12:30am 25.7 23.1 10.7 39 8.5 S 15 19 8 10 1015.1 1013.7 0.0
26/12:00am 27.0 23.7 9.4 33 9.8 SSE 17 28 9 15 1015.4 1014.0 0.0
 
Date/Time
EST
Temp
°C
App
Temp
°C
Dew
Point
Rel
Hum
%
Delta-T
°C
Wind Press
QNH
hPa
Press
MSL
hPa
Rain
since 9 am
mm
Dir
 
Spd
km/h
Gust
km/h
Spd
kts
Gust
kts
25/11:30pm 29.3 27.8 10.4 31 10.8 SSE 9 20 5 11 1015.7 1014.3 0.0
25/11:00pm 28.5 28.6 15.4 45 8.1 W 9 15 5 8 1015.6 1014.2 0.0
25/10:30pm 27.7 28.1 16.3 49 7.1 N 9 11 5 6 1015.6 1014.2 0.0
25/10:00pm 28.3 28.7 16.2 47 7.5 N 9 13 5 7 1015.3 1013.9 0.0
25/09:30pm 28.2 27.0 17.4 52 6.9 N 20 26 11 14 1015.2 1013.8 0.0
25/09:00pm 28.6 29.5 16.5 48 7.6 NW 7 11 4 6 1014.7 1013.3 0.0
25/08:30pm 28.8 29.0 15.7 45 8.1 NW 9 11 5 6 1014.1 1012.8 0.0
25/08:00pm 29.1 30.0 17.6 50 7.3 N 9 11 5 6 1013.8 1012.5 0.0
25/07:30pm 30.8 31.1 16.0 40 9.3 NNW 9 11 5 6 1013.3 1011.9 0.0
25/07:00pm 31.8 31.8 15.3 37 10.3 W 9 11 5 6 1012.9 1011.5 0.0
25/06:30pm 33.2 33.2 14.3 32 11.7 NW 7 13 4 7 1012.5 1011.1 0.0
25/06:00pm 33.8 33.9 13.8 30 12.3 NNW 6 11 3 6 1012.2 1010.8 0.0
25/05:30pm 36.7 35.8 10.8 21 15.4 SW 6 9 3 5 1012.0 1010.6 0.0
25/05:00pm 37.0 34.9 11.1 21 15.5 SW 13 26 7 14 1011.8 1010.4 0.0
25/04:30pm 37.1 33.9 11.1 21 15.5 SW 19 32 10 17 1011.7 1010.3 0.0
25/04:00pm 36.8 33.9 12.3 23 14.9 WSW 19 28 10 15 1011.7 1010.3 0.0
25/03:30pm 36.4 34.1 11.9 23 14.8 SW 15 30 8 16 1011.8 1010.4 0.0
25/03:00pm 35.7 33.7 11.4 23 14.5 SW 13 19 7 10 1012.3 1010.9 0.0
25/02:30pm 34.3 33.4 12.6 27 13.1 WNW 9 15 5 8 1012.9 1011.5 0.0
25/02:00pm 33.9 33.5 16.3 35 11.2 WNW 13 20 7 11 1013.3 1011.9 0.0
25/01:30pm 33.2 32.9 13.3 30 12.1 SW 7 13 4 7 1013.7 1012.4 0.0
25/01:00pm 33.2 33.4 14.3 32 11.7 SW 6 15 3 8 1014.1 1012.8 0.0
25/12:30pm 32.8 32.5 14.4 33 11.4 SSW 9 15 5 8 1014.6 1013.2 0.0
25/12:00pm 32.2 32.4 14.3 33 11.0 NNW 6 13 3 7 1015.1 1013.7 0.0
25/11:30am 30.6 30.7 15.5 40 9.4 SSW 9 17 5 9 1015.6 1014.2 0.0
25/11:00am 29.9 30.3 15.2 41 9.1 SSW 7 15 4 8 1015.9 1014.5 0.0
25/10:30am 28.7 29.1 17.2 49 7.3 SW 11 15 6 8 1016.2 1014.8 0.0
25/10:00am 28.4 29.2 19.1 57 6.1 SW 13 19 7 10 1016.4 1015.0 0.0
25/09:30am 28.0 28.1 19.2 58 5.7 WSW 17 22 9 12 1016.3 1014.9 0.0
25/09:00am 27.2 28.1 20.0 64 4.7 W 15 19 8 10 1016.3 1014.9 9.8
25/08:30am 26.5 28.1 19.9 67 4.3 WNW 11 13 6 7 1016.0 1014.6 9.8
25/08:00am 26.1 28.0 19.7 68 4.2 WNW 9 13 5 7 1015.4 1014.0 9.8
25/07:30am 25.1 28.0 20.6 76 3.0 NNW 6 9 3 5 1015.2 1013.8 9.8
25/07:00am 23.7 26.7 21.2 86 1.7 NNW 7 7 4 4 1014.9 1013.5 9.8
25/06:30am 23.4 25.5 20.9 86 1.6 NNW 11 13 6 7 1014.6 1013.2 9.8
25/06:00am 23.5 24.9 21.0 86 1.6 W 15 20 8 11 1013.9 1012.6 9.8
25/05:30am 23.6 24.4 20.7 84 1.9 WNW 17 20 9 11 1013.7 1012.4 9.8
25/05:00am 24.0 25.4 21.1 84 1.9 WNW 15 24 8 13 1013.4 1012.0 9.8
25/04:30am 23.6 24.7 21.3 87 1.5 W 17 20 9 11 1013.4 1012.0 9.8
25/04:00am 23.7 23.5 21.2 86 1.7 NW 24 32 13 17 1013.3 1011.9 9.8
25/03:30am 23.6 23.3 21.1 86 1.7 NNW 24 32 13 17 1013.6 1012.3 9.8
25/03:00am 23.7 23.8 21.2 86 1.7 NNW 22 24 12 13 1013.9 1012.6 9.6
25/02:30am 24.2 26.4 21.9 87 1.5 NNW 13 19 7 10 1014.6 1013.2 9.2
25/02:00am 24.1 25.4 21.6 86 1.7 W 17 22 9 12 1014.0 1012.7 9.2
25/01:30am 24.3 24.3 21.0 82 2.2 NNW 22 30 12 16 1013.4 1012.0 9.2
25/01:00am 24.6 24.8 21.3 82 2.2 N 22 30 12 16 1013.2 1011.8 9.2
25/12:30am 24.0 22.5 20.9 83 2.0 NNW 30 37 16 20 1013.7 1012.4 9.2
25/12:00am 23.7 23.5 22.0 90 1.1 NNW 26 35 14 19 1014.0 1012.7 9.2
 
Date/Time
EST
Temp
°C
App
Temp
°C
Dew
Point
Rel
Hum
%
Delta-T
°C
Wind Press
QNH
hPa
Press
MSL
hPa
Rain
since 9 am
mm
Dir
 
Spd
km/h
Gust
km/h
Spd
kts
Gust
kts
24/11:30pm 24.3 25.7 21.8 86 1.7 NNE 17 20 9 11 1014.9 1013.5 8.6
24/11:00pm 24.0 25.2 21.5 86 1.7 NNE 17 24 9 13 1014.8 1013.4 8.0
24/10:30pm 26.0 24.5 19.4 67 4.3 NNE 26 39 14 21 1014.2 1012.9 0.6
24/10:21pm 29.2 27.2 17.4 49 7.5 ENE 24 39 13 21 1014.1 1012.8 0.0
24/10:00pm 29.8 29.2 16.6 45 8.3 E 15 20 8 11 1013.7 1012.4 0.0
24/09:30pm 30.7 28.8 15.2 39 9.6 SSW 19 30 10 16 1012.9 1011.5 0.0
24/09:00pm 31.0 29.3 15.8 40 9.5 SSW 19 26 10 14 1012.6 1011.2 0.0
24/08:30pm 32.0 31.1 15.9 38 10.1 SSE 15 20 8 11 1012.3 1010.9 0.0

Other Formats:

Comma delimited format used in spreadsheet applications
http://www.bom.gov.au/fwo/IDQ60801/IDQ60801.94341.axf

JavaScript Object Notation format (JSON) in row-major order
http://www.bom.gov.au/fwo/IDQ60801/IDQ60801.94341.json